createdAt,value
2023-02-11T00:01:20.267Z,102669.03
2023-02-11T00:03:48.078Z,102666.47
2023-02-11T00:06:15.829Z,102670.72
2023-02-11T00:08:43.859Z,102666.84
2023-02-11T00:11:16.114Z,102665.81
2023-02-11T00:13:44.230Z,102676.03
2023-02-11T00:16:14.315Z,102681.44
2023-02-11T00:18:41.962Z,102683.78
2023-02-11T00:21:10.252Z,102669.19
2023-02-11T00:23:38.263Z,102678.31
2023-02-11T00:26:12.352Z,102670.66
2023-02-11T00:28:41.399Z,102672.34
2023-02-11T00:31:09.419Z,102671.41
2023-02-11T00:33:37.236Z,102672.97
2023-02-11T00:36:05.977Z,102666.13
2023-02-11T00:38:33.638Z,102672.97
2023-02-11T00:41:01.345Z,102667.00
2023-02-11T00:43:28.941Z,102674.03
2023-02-11T00:45:58.050Z,102668.78
2023-02-11T00:48:25.843Z,102667.28
2023-02-11T00:50:53.457Z,102665.47
2023-02-11T00:53:21.080Z,102667.38
2023-02-11T00:55:49.091Z,102665.78
2023-02-11T00:58:16.929Z,102667.19
2023-02-11T01:00:44.722Z,102662.34
2023-02-11T01:03:13.721Z,102666.06
2023-02-11T01:05:41.379Z,102669.41
2023-02-11T01:08:09.089Z,102658.19
2023-02-11T01:10:36.775Z,102656.88
2023-02-11T01:13:04.492Z,102656.06
2023-02-11T01:15:32.104Z,102654.75
2023-02-11T01:18:00.282Z,102648.59
2023-02-11T01:20:30.376Z,102639.34
2023-02-11T01:22:58.185Z,102648.97
2023-02-11T01:25:25.979Z,102651.69
2023-02-11T01:27:53.558Z,102643.69
2023-02-11T01:30:21.162Z,102642.41
2023-02-11T01:32:48.856Z,102636.94
2023-02-11T01:35:16.535Z,102637.59
2023-02-11T01:37:47.745Z,102632.97
2023-02-11T01:40:18.156Z,102626.13
2023-02-11T01:42:47.890Z,102630.47
2023-02-11T01:45:50.759Z,102628.63
2023-02-11T01:48:22.628Z,102621.63
2023-02-11T01:50:54.752Z,102622.28
2023-02-11T01:53:41.960Z,102614.22
2023-02-11T01:56:27.411Z,102623.63
2023-02-11T01:59:00.312Z,102614.00
2023-02-11T02:01:29.980Z,102606.28
2023-02-11T02:04:02.758Z,102607.72
2023-02-11T02:06:35.847Z,102603.56
2023-02-11T02:09:08.984Z,102597.34
2023-02-11T02:11:37.334Z,102593.75
2023-02-11T02:14:05.029Z,102594.03
2023-02-11T02:16:35.808Z,102584.78
2023-02-11T02:19:25.875Z,102576.31
2023-02-11T02:22:26.098Z,102570.47
2023-02-11T02:25:25.102Z,102580.56
2023-02-11T02:28:02.004Z,102577.69
2023-02-11T02:30:54.299Z,102576.72
2023-02-11T02:33:40.716Z,102582.06
2023-02-11T02:36:17.173Z,102590.19
2023-02-11T02:38:51.677Z,102588.59
2023-02-11T02:41:23.086Z,102572.34
2023-02-11T02:43:52.587Z,102564.19
2023-02-11T02:46:24.461Z,102562.47
2023-02-11T02:48:54.708Z,102560.75
2023-02-11T02:51:46.686Z,102567.00
2023-02-11T02:55:02.008Z,102556.00
2023-02-11T02:57:40.190Z,102550.75
2023-02-11T03:00:22.741Z,102553.59
2023-02-11T03:03:07.003Z,102554.50
2023-02-11T03:05:49.575Z,102560.88
2023-02-11T03:08:23.310Z,102555.19
2023-02-11T03:10:53.542Z,102565.03
2023-02-11T03:13:32.003Z,102573.13
2023-02-11T03:16:01.770Z,102574.41
2023-02-11T03:18:31.534Z,102578.16
2023-02-11T03:21:03.496Z,102578.75
2023-02-11T03:23:37.456Z,102577.31
2023-02-11T03:26:12.633Z,102576.47
2023-02-11T03:28:46.568Z,102576.63
2023-02-11T03:31:20.077Z,102567.72
2023-02-11T03:33:57.966Z,102567.72
2023-02-11T03:36:34.014Z,102568.31
2023-02-11T03:39:03.877Z,102568.44
2023-02-11T03:41:32.651Z,102565.00
2023-02-11T03:44:00.943Z,102561.69
2023-02-11T03:46:32.268Z,102565.31
2023-02-11T03:49:05.217Z,102567.84
2023-02-11T03:51:35.717Z,102553.38
2023-02-11T03:54:06.959Z,102554.31
2023-02-11T03:56:40.608Z,102545.50
2023-02-11T03:59:08.996Z,102549.09
2023-02-11T04:01:36.689Z,102546.47
2023-02-11T04:04:04.578Z,102542.16
2023-02-11T04:06:32.168Z,102533.38
2023-02-11T04:09:01.156Z,102529.00
2023-02-11T04:11:28.864Z,102518.97
2023-02-11T04:13:56.462Z,102514.13
2023-02-11T04:16:24.167Z,102520.38
2023-02-11T04:18:51.835Z,102513.66
2023-02-11T04:21:19.717Z,102504.00
2023-02-11T04:23:47.315Z,102498.00
2023-02-11T04:26:16.366Z,102486.56
2023-02-11T04:28:44.058Z,102486.59
2023-02-11T04:31:12.877Z,102485.13
2023-02-11T04:33:40.457Z,102491.28
2023-02-11T04:36:09.055Z,102476.38
2023-02-11T04:38:36.657Z,102479.38
2023-02-11T04:41:04.253Z,102485.44
2023-02-11T04:43:33.212Z,102486.25
2023-02-11T04:46:00.850Z,102488.59
2023-02-11T04:48:28.584Z,102494.03
2023-02-11T04:50:56.199Z,102497.09
2023-02-11T04:53:23.843Z,102511.44
2023-02-11T04:55:52.305Z,102513.66
2023-02-11T04:58:21.011Z,102514.22
2023-02-11T05:00:50.089Z,102516.84
2023-02-11T05:03:18.324Z,102521.53
2023-02-11T05:05:46.037Z,102522.53
2023-02-11T05:08:14.196Z,102527.59
2023-02-11T05:10:41.751Z,102523.81
2023-02-11T05:13:09.433Z,102530.66
2023-02-11T05:15:37.041Z,102529.06
2023-02-11T05:18:06.298Z,102524.16
2023-02-11T05:20:33.940Z,102526.41
2023-02-11T05:23:01.551Z,102529.47
2023-02-11T05:25:29.189Z,102534.63
2023-02-11T05:27:57.126Z,102519.72
2023-02-11T05:30:24.767Z,102514.47
2023-02-11T05:32:52.602Z,102512.75
2023-02-11T05:35:22.170Z,102507.75
2023-02-11T05:37:49.841Z,102509.09
2023-02-11T05:40:17.757Z,102520.72
2023-02-11T05:42:45.450Z,102510.44
2023-02-11T05:45:13.097Z,102505.38
2023-02-11T05:47:40.739Z,102506.75
2023-02-11T05:50:08.927Z,102496.09
2023-02-11T05:52:37.931Z,102498.00
2023-02-11T05:55:06.371Z,102514.34
2023-02-11T05:57:34.237Z,102518.41
2023-02-11T06:00:01.840Z,102514.63
2023-02-11T06:02:29.550Z,102509.47
2023-02-11T06:04:57.213Z,102504.22
2023-02-11T06:07:24.898Z,102506.94
2023-02-11T06:09:53.955Z,102507.16
2023-02-11T06:12:21.619Z,102508.09
2023-02-11T06:14:51.723Z,102511.72
2023-02-11T06:17:19.538Z,102518.44
2023-02-11T06:19:47.208Z,102513.09
2023-02-11T06:22:14.845Z,102511.09
2023-02-11T06:25:00.378Z,102505.78
2023-02-11T06:27:31.135Z,102498.28
2023-02-11T06:29:58.765Z,102502.69
2023-02-11T06:32:45.373Z,102505.34
2023-02-11T06:35:14.521Z,102513.56
2023-02-11T06:37:42.731Z,102519.16
2023-02-11T06:40:10.827Z,102524.56
2023-02-11T06:42:40.097Z,102515.78
2023-02-11T06:45:09.507Z,102509.25
2023-02-11T06:47:37.327Z,102512.25
2023-02-11T06:50:05.865Z,102515.78
2023-02-11T06:52:34.291Z,102514.13
2023-02-11T06:55:02.593Z,102522.75
2023-02-11T06:57:31.310Z,102533.78
2023-02-11T07:00:00.358Z,102541.13
2023-02-11T07:02:28.220Z,102536.56
2023-02-11T07:04:55.931Z,102533.03
2023-02-11T07:07:23.550Z,102530.63
2023-02-11T07:09:51.295Z,102532.69
2023-02-11T07:12:18.925Z,102532.69
2023-02-11T07:14:46.754Z,102541.16
2023-02-11T07:17:15.738Z,102535.81
2023-02-11T07:19:43.792Z,102536.22
2023-02-11T07:22:11.586Z,102534.09
2023-02-11T07:24:39.186Z,102534.19
2023-02-11T07:27:06.879Z,102533.41
2023-02-11T07:29:34.564Z,102531.41
2023-02-11T07:32:02.248Z,102521.06
2023-02-11T07:34:31.377Z,102516.53
2023-02-11T07:36:59.107Z,102518.69
2023-02-11T07:39:27.393Z,102523.75
2023-02-11T07:41:55.292Z,102525.38
2023-02-11T07:44:22.964Z,102519.22
2023-02-11T07:46:50.762Z,102527.41
2023-02-11T07:49:18.707Z,102519.19
2023-02-11T07:51:49.998Z,102522.00
2023-02-11T07:54:18.065Z,102539.25
2023-02-11T07:56:45.853Z,102550.56
2023-02-11T07:59:13.601Z,102550.66
2023-02-11T08:01:41.312Z,102555.44
2023-02-11T08:04:08.995Z,102547.31
2023-02-11T08:06:41.318Z,102543.81
2023-02-11T08:09:15.663Z,102534.44
2023-02-11T08:11:43.684Z,102546.91
2023-02-11T08:14:12.170Z,102537.91
2023-02-11T08:16:40.068Z,102535.22
2023-02-11T08:19:09.165Z,102529.78
2023-02-11T08:21:36.917Z,102534.31
2023-02-11T08:24:05.204Z,102543.47
2023-02-11T08:26:35.349Z,102536.63
2023-02-11T08:29:07.155Z,102547.00
2023-02-11T08:31:36.971Z,102537.28
2023-02-11T08:34:04.897Z,102537.34
2023-02-11T08:36:36.679Z,102533.78
2023-02-11T08:39:22.487Z,102530.72
2023-02-11T08:41:53.655Z,102545.41
2023-02-11T08:44:22.561Z,102534.38
2023-02-11T08:46:51.203Z,102534.97
2023-02-11T08:49:19.086Z,102536.44
2023-02-11T08:51:47.613Z,102536.41
2023-02-11T08:54:16.178Z,102539.97
2023-02-11T08:56:43.842Z,102553.03
2023-02-11T08:59:14.570Z,102562.09
2023-02-11T09:01:44.102Z,102558.47
2023-02-11T09:04:12.127Z,102569.53
2023-02-11T09:06:39.853Z,102560.56
2023-02-11T09:09:07.777Z,102559.88
2023-02-11T09:11:37.287Z,102564.69
2023-02-11T09:14:05.499Z,102575.19
2023-02-11T09:16:36.736Z,102568.78
2023-02-11T09:19:06.872Z,102571.78
2023-02-11T09:21:34.751Z,102571.13
2023-02-11T09:24:02.565Z,102573.19
2023-02-11T09:26:32.596Z,102581.56
2023-02-11T09:29:00.857Z,102586.81
2023-02-11T09:31:30.442Z,102577.13
2023-02-11T09:34:01.780Z,102576.19
2023-02-11T09:36:31.327Z,102579.84
2023-02-11T09:39:00.110Z,102577.97
2023-02-11T09:41:52.107Z,102575.56
2023-02-11T09:44:22.411Z,102575.91
2023-02-11T09:46:56.153Z,102576.22
2023-02-11T09:49:36.222Z,102575.84
2023-02-11T09:52:09.134Z,102569.59
2023-02-11T09:54:42.539Z,102575.63
2023-02-11T09:57:26.496Z,102576.59
2023-02-11T09:59:56.886Z,102581.59
2023-02-11T10:02:30.857Z,102576.63
2023-02-11T10:05:25.611Z,102576.91
2023-02-11T10:08:01.235Z,102582.69
2023-02-11T10:10:39.949Z,102583.41
2023-02-11T10:13:25.749Z,102582.00
2023-02-11T10:16:00.638Z,102582.09
2023-02-11T10:18:41.502Z,102580.63
2023-02-11T10:21:19.950Z,102584.25
2023-02-11T10:23:52.648Z,102592.69
2023-02-11T10:26:20.857Z,102588.34
2023-02-11T10:28:51.362Z,102580.75
2023-02-11T10:31:25.119Z,102586.97
2023-02-11T10:33:59.294Z,102582.53
2023-02-11T10:36:31.294Z,102580.47
2023-02-11T10:39:00.308Z,102579.41
2023-02-11T10:41:34.926Z,102579.78
2023-02-11T10:44:02.842Z,102579.53
2023-02-11T10:46:34.046Z,102570.00
2023-02-11T10:49:03.432Z,102564.25
2023-02-11T10:51:34.406Z,102557.22
2023-02-11T10:54:21.343Z,102556.22
2023-02-11T10:56:52.150Z,102559.84
2023-02-11T10:59:26.226Z,102563.75
2023-02-11T11:01:57.472Z,102561.63
2023-02-11T11:04:44.975Z,102555.47
2023-02-11T11:07:23.850Z,102559.66
2023-02-11T11:09:56.627Z,102561.28
2023-02-11T11:12:31.408Z,102563.69
2023-02-11T11:15:01.166Z,102560.28
2023-02-11T11:17:31.640Z,102564.19
2023-02-11T11:20:16.546Z,102563.09
2023-02-11T11:22:46.118Z,102569.84
2023-02-11T11:25:28.010Z,102568.28
2023-02-11T11:27:58.799Z,102578.00
2023-02-11T11:30:31.610Z,102571.41
2023-02-11T11:33:00.306Z,102565.34
2023-02-11T11:35:29.898Z,102559.47
2023-02-11T11:38:02.960Z,102555.47
2023-02-11T11:40:32.290Z,102559.03
2023-02-11T11:43:05.823Z,102561.47
2023-02-11T11:45:33.968Z,102569.78
2023-02-11T11:48:06.916Z,102565.16
2023-02-11T11:50:37.990Z,102565.09
2023-02-11T11:53:14.908Z,102561.28
2023-02-11T11:55:46.323Z,102566.22
2023-02-11T11:58:17.657Z,102556.56
2023-02-11T12:00:55.556Z,102560.66
2023-02-11T12:04:05.035Z,102553.47
2023-02-11T12:06:44.372Z,102549.19
2023-02-11T12:09:25.014Z,102551.88
2023-02-11T12:12:05.768Z,102545.34
2023-02-11T12:14:44.765Z,102536.44
2023-02-11T12:17:23.080Z,102540.38
2023-02-11T12:20:14.057Z,102546.53
2023-02-11T12:22:52.311Z,102544.06
2023-02-11T12:25:28.445Z,102547.41
2023-02-11T12:28:08.853Z,102552.59
2023-02-11T12:30:55.155Z,102548.44
2023-02-11T12:33:39.886Z,102542.00
2023-02-11T12:36:33.500Z,102547.72
2023-02-11T12:39:16.839Z,102535.97
2023-02-11T12:42:24.289Z,102533.53
2023-02-11T12:45:09.934Z,102552.84
2023-02-11T12:47:46.408Z,102546.50
2023-02-11T12:50:24.310Z,102546.97
2023-02-11T12:53:09.549Z,102543.56
2023-02-11T12:55:43.261Z,102543.66
2023-02-11T12:58:18.025Z,102542.78
2023-02-11T13:00:50.696Z,102540.16
2023-02-11T13:03:25.542Z,102530.94
2023-02-11T13:05:56.934Z,102526.16
2023-02-11T13:08:30.388Z,102519.69
2023-02-11T13:11:00.720Z,102525.94
2023-02-11T13:13:36.085Z,102531.25
2023-02-11T13:16:07.604Z,102524.06
2023-02-11T13:18:49.604Z,102520.28
2023-02-11T13:21:33.484Z,102520.84
2023-02-11T13:24:10.491Z,102514.00
2023-02-11T13:26:46.714Z,102511.75
2023-02-11T13:29:27.824Z,102519.84
2023-02-11T13:31:56.716Z,102521.69
2023-02-11T13:34:26.396Z,102522.03
2023-02-11T13:36:58.359Z,102515.09
2023-02-11T13:39:26.225Z,102520.63
2023-02-11T13:42:03.352Z,102520.78
2023-02-11T13:44:35.160Z,102519.28
2023-02-11T13:47:06.024Z,102514.94
2023-02-11T13:49:40.404Z,102514.94
2023-02-11T13:52:21.064Z,102504.59
2023-02-11T13:54:51.822Z,102508.09
2023-02-11T13:57:41.162Z,102497.59
2023-02-11T14:00:48.881Z,102494.00
2023-02-11T14:03:45.574Z,102490.69
2023-02-11T14:06:40.377Z,102487.44
2023-02-11T14:09:38.906Z,102497.97
2023-02-11T14:12:26.180Z,102502.50
2023-02-11T14:15:04.322Z,102509.41
2023-02-11T14:17:34.542Z,102506.59
2023-02-11T14:20:25.460Z,102498.66
2023-02-11T14:22:54.630Z,102501.63
2023-02-11T14:25:25.496Z,102498.03
2023-02-11T14:27:57.288Z,102495.59
2023-02-11T14:30:36.427Z,102495.00
2023-02-11T14:33:39.444Z,102505.59
2023-02-11T14:36:20.976Z,102515.06
2023-02-11T14:39:02.771Z,102511.09
2023-02-11T14:41:34.331Z,102507.66
2023-02-11T14:44:06.918Z,102508.78
2023-02-11T14:46:35.483Z,102510.56
2023-02-11T14:49:06.316Z,102519.38
2023-02-11T14:51:41.669Z,102520.06
2023-02-11T14:54:16.774Z,102523.63
2023-02-11T14:56:46.810Z,102519.38
2023-02-11T14:59:18.458Z,102523.72
2023-02-11T15:01:50.332Z,102522.94
2023-02-11T15:04:26.038Z,102523.06
2023-02-11T15:06:56.743Z,102523.16
2023-02-11T15:09:30.793Z,102521.06
2023-02-11T15:11:59.615Z,102525.16
2023-02-11T15:14:29.304Z,102525.44
2023-02-11T15:16:59.562Z,102533.00
2023-02-11T15:19:34.274Z,102536.88
2023-02-11T15:22:06.739Z,102544.13
2023-02-11T15:24:38.962Z,102539.19
2023-02-11T15:27:15.521Z,102540.13
2023-02-11T15:29:46.161Z,102533.91
2023-02-11T15:32:16.862Z,102536.38
2023-02-11T15:34:46.279Z,102541.47
2023-02-11T15:37:20.994Z,102548.97
2023-02-11T15:39:48.742Z,102550.97
2023-02-11T15:42:22.221Z,102547.72
2023-02-11T15:44:56.579Z,102551.50
2023-02-11T15:47:24.792Z,102550.72
2023-02-11T15:49:52.536Z,102553.22
2023-02-11T15:52:27.364Z,102559.28
2023-02-11T15:54:57.441Z,102557.56
2023-02-11T15:57:25.093Z,102551.13
2023-02-11T15:59:56.187Z,102555.56
2023-02-11T16:02:31.430Z,102559.00
2023-02-11T16:05:02.009Z,102551.91
2023-02-11T16:07:43.343Z,102564.13
2023-02-11T16:10:23.217Z,102563.06
2023-02-11T16:13:04.051Z,102565.81
2023-02-11T16:15:45.439Z,102557.97
2023-02-11T16:18:38.274Z,102561.28
2023-02-11T16:21:08.763Z,102567.34
2023-02-11T16:23:42.276Z,102573.66
2023-02-11T16:26:20.714Z,102569.34
2023-02-11T16:28:48.612Z,102575.56
2023-02-11T16:31:16.467Z,102575.91
2023-02-11T16:33:44.358Z,102578.81
2023-02-11T16:36:14.638Z,102579.06
2023-02-11T16:38:43.613Z,102585.84
2023-02-11T16:41:12.775Z,102581.66
2023-02-11T16:43:40.688Z,102583.19
2023-02-11T16:46:09.192Z,102579.00
2023-02-11T16:48:36.777Z,102591.03
2023-02-11T16:51:04.869Z,102592.66
2023-02-11T16:53:32.518Z,102590.38
2023-02-11T16:56:01.495Z,102583.44
2023-02-11T16:58:29.062Z,102578.84
2023-02-11T17:00:57.086Z,102588.22
2023-02-11T17:03:30.064Z,102578.31
2023-02-11T17:05:58.025Z,102581.56
2023-02-11T17:08:25.676Z,102594.53
2023-02-11T17:10:53.699Z,102594.88
2023-02-11T17:13:22.914Z,102589.56
2023-02-11T17:15:50.944Z,102579.84
2023-02-11T17:18:18.915Z,102600.00
2023-02-11T17:20:46.521Z,102586.06
2023-02-11T17:23:14.311Z,102586.69
2023-02-11T17:25:42.064Z,102590.25
2023-02-11T17:28:12.148Z,102594.63
2023-02-11T17:30:44.163Z,102591.97
2023-02-11T17:33:11.895Z,102600.16
2023-02-11T17:35:41.528Z,102592.13
2023-02-11T17:38:09.265Z,102600.84
2023-02-11T17:40:36.959Z,102599.13
2023-02-11T17:43:04.779Z,102607.16
2023-02-11T17:45:32.443Z,102605.72
2023-02-11T17:48:01.506Z,102606.59
2023-02-11T17:50:29.622Z,102606.81
2023-02-11T17:52:57.743Z,102614.84
2023-02-11T17:55:25.324Z,102607.69
2023-02-11T17:57:52.945Z,102607.84
2023-02-11T18:00:22.444Z,102618.44
2023-02-11T18:02:50.013Z,102620.25
2023-02-11T18:05:18.964Z,102618.09
2023-02-11T18:07:47.973Z,102621.00
2023-02-11T18:10:15.626Z,102624.25
2023-02-11T18:12:43.304Z,102616.63
2023-02-11T18:15:11.602Z,102618.44
2023-02-11T18:17:39.231Z,102613.25
2023-02-11T18:20:08.687Z,102614.59
2023-02-11T18:22:40.087Z,102631.06
2023-02-11T18:25:09.629Z,102628.69
2023-02-11T18:27:37.242Z,102624.00
2023-02-11T18:30:05.805Z,102626.47
2023-02-11T18:32:33.363Z,102621.34
2023-02-11T18:35:00.993Z,102622.44
2023-02-11T18:37:28.601Z,102621.34
2023-02-11T18:39:57.575Z,102631.94
2023-02-11T18:42:27.765Z,102628.84
2023-02-11T18:44:55.566Z,102632.34
2023-02-11T18:47:23.192Z,102637.56
2023-02-11T18:49:50.875Z,102642.00
2023-02-11T18:52:18.558Z,102643.09
2023-02-11T18:54:46.301Z,102636.88
2023-02-11T18:57:15.204Z,102635.34
2023-02-11T18:59:42.943Z,102634.50
2023-02-11T19:02:10.805Z,102640.09
2023-02-11T19:04:38.554Z,102638.00
2023-02-11T19:07:06.286Z,102624.50
2023-02-11T19:09:33.945Z,102623.78
2023-02-11T19:12:02.197Z,102630.94
2023-02-11T19:14:33.465Z,102629.50
2023-02-11T19:17:03.068Z,102619.34
2023-02-11T19:19:34.503Z,102624.56
2023-02-11T19:22:03.342Z,102630.34
2023-02-11T19:24:31.511Z,102633.38
2023-02-11T19:27:01.552Z,102630.13
2023-02-11T19:29:32.063Z,102624.66
2023-02-11T19:31:59.739Z,102621.78
2023-02-11T19:34:27.609Z,102634.66
2023-02-11T19:36:56.660Z,102634.41
2023-02-11T19:39:24.823Z,102635.00
2023-02-11T19:41:52.583Z,102642.78
2023-02-11T19:44:20.293Z,102646.38
2023-02-11T19:46:50.176Z,102645.22
2023-02-11T19:49:22.925Z,102638.94
2023-02-11T19:51:50.762Z,102644.16
2023-02-11T19:54:18.447Z,102646.72
2023-02-11T19:56:47.285Z,102646.63
2023-02-11T19:59:15.418Z,102642.19
2023-02-11T20:01:44.288Z,102645.66
2023-02-11T20:04:13.349Z,102644.84
2023-02-11T20:06:41.164Z,102648.31
2023-02-11T20:09:12.815Z,102648.22
2023-02-11T20:11:41.338Z,102650.94
2023-02-11T20:14:10.491Z,102651.81
2023-02-11T20:16:48.237Z,102653.59
2023-02-11T20:19:19.519Z,102660.59
2023-02-11T20:21:48.906Z,102661.66
2023-02-11T20:24:17.334Z,102668.81
2023-02-11T20:26:46.820Z,102661.13
2023-02-11T20:29:15.265Z,102664.69
2023-02-11T20:31:43.742Z,102661.97
2023-02-11T20:34:12.297Z,102655.81
2023-02-11T20:36:41.996Z,102658.75
2023-02-11T20:39:11.633Z,102658.59
2023-02-11T20:41:40.646Z,102663.97
2023-02-11T20:44:11.135Z,102670.00
2023-02-11T20:46:42.245Z,102667.53
2023-02-11T20:49:12.194Z,102663.97
2023-02-11T20:51:41.599Z,102662.16
2023-02-11T20:54:13.522Z,102657.72
2023-02-11T20:56:41.544Z,102658.03
2023-02-11T20:59:09.692Z,102664.19
2023-02-11T21:01:40.678Z,102664.88
2023-02-11T21:04:12.042Z,102663.75
2023-02-11T21:06:43.150Z,102663.69
2023-02-11T21:09:14.077Z,102657.53
2023-02-11T21:11:42.281Z,102657.44
2023-02-11T21:14:11.081Z,102660.03
2023-02-11T21:16:39.200Z,102664.38
2023-02-11T21:19:07.724Z,102659.25
2023-02-11T21:21:37.317Z,102655.75
2023-02-11T21:24:07.469Z,102664.97
2023-02-11T21:26:36.303Z,102659.41
2023-02-11T21:29:04.438Z,102658.31
2023-02-11T21:31:34.119Z,102657.53
2023-02-11T21:34:02.469Z,102657.03
2023-02-11T21:36:31.169Z,102657.69
2023-02-11T21:39:00.125Z,102667.91
2023-02-11T21:41:29.144Z,102668.19
2023-02-11T21:43:58.752Z,102658.81
2023-02-11T21:46:28.621Z,102661.25
2023-02-11T21:48:56.469Z,102664.47
2023-02-11T21:51:26.630Z,102662.47
2023-02-11T21:53:57.560Z,102666.56
2023-02-11T21:56:26.301Z,102668.13
2023-02-11T21:58:57.571Z,102680.25
2023-02-11T22:01:27.581Z,102683.94
2023-02-11T22:03:55.197Z,102690.00
2023-02-11T22:06:27.050Z,102681.28
2023-02-11T22:08:55.644Z,102695.28
2023-02-11T22:11:23.732Z,102690.66
2023-02-11T22:13:56.229Z,102701.00
2023-02-11T22:16:24.968Z,102698.38
2023-02-11T22:18:52.760Z,102708.94
2023-02-11T22:21:22.755Z,102709.38
2023-02-11T22:23:51.110Z,102703.97
2023-02-11T22:26:21.728Z,102710.97
2023-02-11T22:28:49.890Z,102703.31
2023-02-11T22:31:20.901Z,102708.41
2023-02-11T22:33:49.219Z,102707.59
2023-02-11T22:36:18.561Z,102713.88
2023-02-11T22:38:46.483Z,102705.88
2023-02-11T22:41:14.310Z,102694.44
2023-02-11T22:43:43.050Z,102689.28
2023-02-11T22:46:13.603Z,102693.13
2023-02-11T22:48:42.929Z,102694.16
2023-02-11T22:51:13.115Z,102694.38
2023-02-11T22:53:41.123Z,102691.00
2023-02-11T22:56:15.036Z,102695.94
2023-02-11T22:58:43.249Z,102686.91
2023-02-11T23:01:11.182Z,102689.44
2023-02-11T23:03:38.987Z,102680.06
2023-02-11T23:06:08.965Z,102682.97
2023-02-11T23:08:38.329Z,102689.44
2023-02-11T23:11:08.025Z,102693.34
2023-02-11T23:13:38.165Z,102698.56
2023-02-11T23:16:07.522Z,102704.84
2023-02-11T23:18:35.946Z,102693.69
2023-02-11T23:21:06.595Z,102694.78
2023-02-11T23:23:36.003Z,102702.78
2023-02-11T23:26:05.009Z,102696.41
2023-02-11T23:28:32.657Z,102704.00
2023-02-11T23:31:00.434Z,102709.81
2023-02-11T23:33:28.174Z,102709.91
2023-02-11T23:35:56.153Z,102718.94
2023-02-11T23:38:24.061Z,102720.59
2023-02-11T23:40:53.008Z,102718.22
2023-02-11T23:43:23.355Z,102719.00
2023-02-11T23:45:52.782Z,102714.50
2023-02-11T23:48:20.506Z,102717.94
2023-02-11T23:50:48.090Z,102720.31
2023-02-11T23:53:15.861Z,102721.19
2023-02-11T23:55:44.306Z,102728.03
2023-02-11T23:58:14.251Z,102730.50
